Time;durP1;ratioP1;P1;durP2;ratioP2;P2;SDS_P1;SDS_P2;PMS_P1;PMS_P2;Temp;Humidity;BMP_temperature;BMP_pressure;BME280_temperature;BME280_humidity;BME280_pressure;Samples;Min_cycle;Max_cycle;Signal;HPM_P1;HPM_P2
2022/06/17 00:01:47;;;;;;;5.53;4.80;;;;;;;-141.26;100.00;62741.75;5113541;28;20239;-60
2022/06/17 00:04:14;;;;;;;5.33;4.80;;;;;;;-141.26;100.00;62741.75;5114173;28;20223;-60
2022/06/17 00:10:04;;;;;;;5.03;4.60;;;;;;;-141.26;100.00;62741.75;5114230;28;20205;-60
2022/06/17 00:12:31;;;;;;;5.30;4.80;;;;;;;-141.26;100.00;62741.75;5113933;28;20271;-60
2022/06/17 00:15:15;;;;;;;5.33;4.83;;;;;;;-141.26;100.00;62741.75;5114275;28;20225;-62
2022/06/17 00:17:46;;;;;;;5.50;4.90;;;;;;;-141.26;100.00;62741.75;5115434;27;20273;-62
2022/06/17 00:20:16;;;;;;;5.77;4.90;;;;;;;-141.26;100.00;62741.75;5115709;27;20280;-62
2022/06/17 00:22:45;;;;;;;6.30;4.97;;;;;;;-141.26;100.00;62741.75;5115903;27;20223;-62
2022/06/17 00:25:56;;;;;;;5.07;4.67;;;;;;;-141.26;100.00;62741.75;5100241;27;104347;-62
2022/06/17 00:28:24;;;;;;;6.10;5.20;;;;;;;-141.26;100.00;62741.75;5119170;27;20245;-60
2022/06/17 00:30:53;;;;;;;5.97;5.03;;;;;;;-141.26;100.00;62741.75;5117440;28;20219;-60
2022/06/17 00:33:21;;;;;;;5.47;4.80;;;;;;;-141.26;100.00;62741.75;5118866;27;20298;-60
2022/06/17 00:36:29;;;;;;;6.17;5.10;;;;;;;-141.26;100.00;62741.75;5118789;27;20215;-60
2022/06/17 00:38:56;;;;;;;7.00;5.10;;;;;;;-141.26;100.00;62741.75;5119016;27;20318;-60
2022/06/17 00:41:29;;;;;;;6.00;5.00;;;;;;;-141.26;100.00;62741.75;5117217;28;20218;-60
2022/06/17 00:43:58;;;;;;;5.60;5.00;;;;;;;-141.26;100.00;62741.75;5117196;28;20216;-60
2022/06/17 00:46:35;;;;;;;5.37;4.87;;;;;;;-141.26;100.00;62741.75;5118382;27;20213;-60
2022/06/17 00:49:11;;;;;;;6.63;5.93;;;;;;;-141.26;100.00;62741.75;5117194;28;20216;-60
2022/06/17 00:51:44;;;;;;;5.80;5.23;;;;;;;-141.26;100.00;62741.75;5116918;28;20205;-60
2022/06/17 00:54:20;;;;;;;6.80;5.60;;;;;;;-141.26;100.00;62741.75;5117127;28;20242;-60
2022/06/17 00:56:47;;;;;;;8.07;5.93;;;;;;;-141.26;100.00;62741.75;5117167;28;20219;-60
2022/06/17 00:59:15;;;;;;;6.93;5.77;;;;;;;-141.26;100.00;62741.75;5117189;28;20268;-60
2022/06/17 01:01:50;;;;;;;9.73;6.10;;;;;;;-141.26;100.00;62741.75;5116239;28;20241;-60
2022/06/17 01:04:22;;;;;;;7.10;5.93;;;;;;;-141.26;100.00;62741.75;5116885;28;20220;-60
2022/06/17 01:06:53;;;;;;;6.63;5.87;;;;;;;-141.26;100.00;62741.75;5116862;28;20223;-60
2022/06/17 01:12:14;;;;;;;11.47;5.83;;;;;;;-141.26;100.00;62741.75;5118385;28;20284;-60
2022/06/17 01:15:25;;;;;;;7.73;5.60;;;;;;;-141.26;100.00;62741.75;5116686;28;20228;-60
2022/06/17 01:17:58;;;;;;;6.00;5.40;;;;;;;-141.26;100.00;62741.75;5116751;28;20243;-60
2022/06/17 01:20:28;;;;;;;8.53;5.80;;;;;;;-141.26;100.00;62741.75;5117947;27;20212;-60
2022/06/17 01:22:58;;;;;;;6.30;5.70;;;;;;;-141.26;100.00;62741.75;5118313;27;20219;-60
2022/06/17 01:29:46;;;;;;;6.67;5.63;;;;;;;-141.26;100.00;62741.75;5114806;28;20201;-60
2022/06/17 01:32:16;;;;;;;7.43;5.50;;;;;;;-141.26;100.00;62741.75;5116558;28;20216;-60
2022/06/17 01:34:43;;;;;;;6.77;5.20;;;;;;;-141.26;100.00;62741.75;5115616;27;20242;-60
2022/06/17 01:37:12;;;;;;;7.47;5.40;;;;;;;-141.26;100.00;62741.75;5116181;28;20221;-60
2022/06/17 01:39:41;;;;;;;5.23;4.83;;;;;;;-141.26;100.00;62741.75;5116337;28;20316;-60
2022/06/17 01:42:09;;;;;;;7.07;4.97;;;;;;;-141.26;100.00;62741.75;5117484;27;20282;-60
2022/06/17 01:48:57;;;;;;;5.40;4.77;;;;;;;-141.26;100.00;62741.75;5114881;28;20193;-60
2022/06/17 01:51:27;;;;;;;5.33;4.90;;;;;;;-141.26;100.00;62741.75;5115885;28;20239;-60
2022/06/17 01:53:59;;;;;;;7.00;5.03;;;;;;;-141.26;100.00;62741.75;5115891;28;20963;-60
2022/06/17 01:56:34;;;;;;;6.33;4.90;;;;;;;-141.26;100.00;62741.75;5116132;28;20221;-60
2022/06/17 01:59:05;;;;;;;6.63;5.53;;;;;;;-141.26;100.00;62741.75;5115881;28;20217;-60
2022/06/17 02:01:37;;;;;;;6.10;5.50;;;;;;;-141.26;100.00;62741.75;5115110;28;20233;-60
2022/06/17 02:04:10;;;;;;;6.93;5.07;;;;;;;-141.26;100.00;62741.75;5116029;28;20208;-60
2022/06/17 02:06:46;;;;;;;6.97;5.50;;;;;;;-141.26;100.00;62741.75;5115798;28;20275;-60
2022/06/17 02:09:14;;;;;;;6.10;5.27;;;;;;;-141.26;100.00;62741.75;5115872;28;20208;-60
2022/06/17 02:11:42;;;;;;;5.87;5.20;;;;;;;-141.26;100.00;62741.75;5109209;28;106453;-60
2022/06/17 02:14:16;;;;;;;6.03;5.37;;;;;;;-141.26;100.00;62741.75;5123451;28;20226;-60
2022/06/17 02:16:52;;;;;;;6.43;5.83;;;;;;;-141.26;100.00;62741.75;5121631;27;20201;-59
2022/06/17 02:19:51;;;;;;;7.70;6.23;;;;;;;-141.26;100.00;62741.75;5123144;28;20283;-60
2022/06/17 02:22:24;;;;;;;10.63;6.60;;;;;;;-141.26;100.00;62741.75;5122864;28;20225;-60
2022/06/17 02:28:44;;;;;;;9.20;6.40;;;;;;;-141.26;100.00;62741.75;5121311;28;20223;-59
2022/06/17 02:31:12;;;;;;;7.03;6.40;;;;;;;-141.26;100.00;62741.75;5124208;27;20220;-59
2022/06/17 02:33:41;;;;;;;7.13;6.27;;;;;;;-141.26;100.00;62741.75;5124463;28;20215;-59
2022/06/17 02:36:14;;;;;;;7.33;6.40;;;;;;;-141.26;100.00;62741.75;5123097;28;20251;-59
2022/06/17 02:38:42;;;;;;;7.13;6.40;;;;;;;-141.26;100.00;62741.75;5123060;28;20224;-60
2022/06/17 02:41:16;;;;;;;6.70;6.10;;;;;;;-141.26;100.00;62741.75;5122738;28;20217;-60
2022/06/17 02:43:50;;;;;;;6.60;6.00;;;;;;;-141.26;100.00;62741.75;5122815;28;20315;-59
2022/06/17 02:46:41;;;;;;;8.77;5.90;;;;;;;-141.26;100.00;62741.75;5122890;27;20262;-60
2022/06/17 02:49:17;;;;;;;6.53;5.93;;;;;;;-141.26;100.00;62741.75;5122986;28;20221;-60
2022/06/17 02:51:46;;;;;;;8.73;6.20;;;;;;;-141.26;100.00;62741.75;5122852;28;20244;-60
2022/06/17 02:54:19;;;;;;;6.83;5.87;;;;;;;-141.26;100.00;62741.75;5122427;28;20294;-59
2022/06/17 02:56:52;;;;;;;6.80;5.40;;;;;;;-141.26;100.00;62741.75;5122833;28;20220;-59
2022/06/17 02:59:25;;;;;;;7.50;6.40;;;;;;;-141.26;100.00;62741.75;5122662;28;20216;-60
2022/06/17 03:01:57;;;;;;;8.37;6.40;;;;;;;-141.26;100.00;62741.75;5122124;28;20239;-59
2022/06/17 03:05:01;;;;;;;6.53;6.00;;;;;;;-141.26;100.00;62741.75;5122623;28;20224;-59
2022/06/17 03:07:31;;;;;;;6.47;5.97;;;;;;;-141.26;100.00;62741.75;5122391;28;20225;-59
2022/06/17 03:10:16;;;;;;;7.40;6.60;;;;;;;-141.26;100.00;62741.75;5122520;28;20278;-60
2022/06/17 03:12:45;;;;;;;7.73;6.70;;;;;;;-141.26;100.00;62741.75;5122439;28;20212;-59
2022/06/17 03:15:26;;;;;;;6.87;6.17;;;;;;;-141.26;100.00;62741.75;5122279;28;20267;-59
2022/06/17 03:17:53;;;;;;;7.50;6.80;;;;;;;-141.26;100.00;62741.75;5122357;28;20217;-60
2022/06/17 03:20:24;;;;;;;7.73;6.40;;;;;;;-141.26;100.00;62741.75;5122368;28;20219;-59
2022/06/17 03:23:00;;;;;;;6.90;6.30;;;;;;;-141.26;100.00;62741.75;5122202;28;20343;-59
2022/06/17 03:25:54;;;;;;;6.50;5.87;;;;;;;-141.26;100.00;62741.75;5121879;28;20258;-59
2022/06/17 03:28:29;;;;;;;6.57;6.00;;;;;;;-141.26;100.00;62741.75;5122170;28;20232;-60
2022/06/17 03:31:07;;;;;;;5.33;4.83;;;;;;;-141.26;100.00;62741.75;5122165;28;20242;-59
2022/06/17 03:33:39;;;;;;;4.63;4.23;;;;;;;-141.26;100.00;62741.75;5122345;28;20227;-59
2022/06/17 03:36:42;;;;;;;5.30;4.10;;;;;;;-141.26;100.00;62741.75;5122259;28;20226;-59
2022/06/17 03:39:16;;;;;;;5.47;4.90;;;;;;;-141.26;100.00;62741.75;5122102;28;20311;-59
2022/06/17 03:41:50;;;;;;;7.30;4.67;;;;;;;-141.26;100.00;62741.75;5123678;27;20253;-60
2022/06/17 03:44:20;;;;;;;5.67;4.13;;;;;;;-141.26;100.00;62741.75;5123487;27;20327;-59
2022/06/17 03:46:56;;;;;;;7.57;4.57;;;;;;;-141.26;100.00;62741.75;5121972;28;20315;-59
2022/06/17 03:49:29;;;;;;;4.93;4.47;;;;;;;-141.26;100.00;62741.75;5123528;27;20246;-59
2022/06/17 03:52:01;;;;;;;6.57;4.37;;;;;;;-141.26;100.00;62741.75;5121802;28;20233;-60
2022/06/17 03:55:12;;;;;;;7.00;5.20;;;;;;;-141.26;100.00;62741.75;5122039;28;20265;-59
2022/06/17 03:57:40;;;;;;;9.03;4.80;;;;;;;-141.26;100.00;62741.75;5122083;27;20212;-59
2022/06/17 04:00:14;;;;;;;4.63;4.10;;;;;;;-141.26;100.00;62741.75;5125103;28;20231;-60
2022/06/17 04:02:44;;;;;;;4.93;4.47;;;;;;;-141.26;100.00;62741.75;5125235;27;20248;-59
2022/06/17 04:09:01;;;;;;;5.73;5.13;;;;;;;-141.26;100.00;62741.75;5123511;28;20247;-59
2022/06/17 04:11:39;;;;;;;5.23;4.57;;;;;;;-141.26;100.00;62741.75;5125282;28;20229;-59
2022/06/17 04:14:18;;;;;;;4.73;4.37;;;;;;;-141.26;100.00;62741.75;5125482;28;20217;-60
2022/06/17 04:16:52;;;;;;;5.63;4.57;;;;;;;-141.26;100.00;62741.75;5125375;28;20216;-59
2022/06/17 04:19:52;;;;;;;4.23;3.93;;;;;;;-141.26;100.00;62741.75;5125256;28;20227;-59
2022/06/17 04:22:26;;;;;;;5.43;4.93;;;;;;;-141.26;100.00;62741.75;5124806;28;20227;-60
2022/06/17 04:25:33;;;;;;;6.87;5.00;;;;;;;-141.26;100.00;62741.75;5123946;28;20240;-59
2022/06/17 04:28:06;;;;;;;6.80;4.60;;;;;;;-141.26;100.00;62741.75;5125095;28;20217;-60
2022/06/17 04:30:38;;;;;;;6.20;5.60;;;;;;;-141.26;100.00;62741.75;5125008;28;20243;-60
2022/06/17 04:33:16;;;;;;;6.47;5.43;;;;;;;-141.26;100.00;62741.75;5125005;28;20255;-59
2022/06/17 04:39:37;;;;;;;7.10;5.77;;;;;;;-141.26;100.00;62741.75;5123256;28;20252;-59
2022/06/17 04:42:28;;;;;;;8.90;6.33;;;;;;;-141.26;100.00;62741.75;5125373;28;20224;-59
2022/06/17 04:44:56;;;;;;;7.23;6.63;;;;;;;-141.26;100.00;62741.75;5124856;28;20217;-60
2022/06/17 04:47:23;;;;;;;7.77;6.93;;;;;;;-141.26;100.00;62741.75;5124813;28;20227;-59
2022/06/17 04:53:46;;;;;;;9.63;5.97;;;;;;;-141.26;100.00;62741.75;5122734;28;20338;-59
2022/06/17 04:56:32;;;;;;;6.13;5.50;;;;;;;-141.26;100.00;62741.75;5124729;28;20225;-60
2022/06/17 04:59:29;;;;;;;5.80;5.30;;;;;;;-141.26;100.00;62741.75;5124497;28;20378;-60
2022/06/17 05:01:57;;;;;;;8.07;5.20;;;;;;;-141.26;100.00;62741.75;5124200;28;20237;-59
2022/06/17 05:04:51;;;;;;;6.20;5.60;;;;;;;-141.26;100.00;62741.75;5124525;28;20217;-59
2022/06/17 05:07:19;;;;;;;7.77;5.50;;;;;;;-141.26;100.00;62741.75;5124280;28;20224;-60
2022/06/17 05:09:52;;;;;;;6.50;5.20;;;;;;;-141.26;100.00;62741.75;5123467;28;20223;-59
2022/06/17 05:12:32;;;;;;;6.07;5.30;;;;;;;-141.26;100.00;62741.75;5124213;28;20248;-59
2022/06/17 05:15:14;;;;;;;5.83;5.30;;;;;;;-141.26;100.00;62741.75;5124346;28;20214;-59
2022/06/17 05:17:42;;;;;;;5.77;5.17;;;;;;;-141.26;100.00;62741.75;5124079;28;20232;-59
2022/06/17 05:20:15;;;;;;;5.70;5.20;;;;;;;-141.26;100.00;62741.75;5124173;28;20316;-60
2022/06/17 05:22:46;;;;;;;7.90;5.13;;;;;;;-141.26;100.00;62741.75;5125734;27;20232;-59
2022/06/17 05:25:23;;;;;;;6.50;5.33;;;;;;;-141.26;100.00;62741.75;5124065;28;20282;-59
2022/06/17 05:27:52;;;;;;;4.87;4.47;;;;;;;-141.26;100.00;62741.75;5123861;28;20229;-59
2022/06/17 05:30:19;;;;;;;6.27;4.57;;;;;;;-141.26;100.00;62741.75;5124094;28;20217;-59
2022/06/17 05:32:50;;;;;;;5.53;4.90;;;;;;;-141.26;100.00;62741.75;5124097;28;20285;-59
2022/06/17 05:36:04;;;;;;;6.57;4.63;;;;;;;-141.26;100.00;62741.75;5123958;28;20225;-59
2022/06/17 05:38:31;;;;;;;5.27;4.83;;;;;;;-141.26;100.00;62741.75;5124011;28;20282;-59
2022/06/17 05:41:00;;;;;;;6.17;5.40;;;;;;;-141.26;100.00;62741.75;5123759;28;20316;-59
2022/06/17 05:43:29;;;;;;;5.43;5.03;;;;;;;-141.26;100.00;62741.75;5123884;28;20233;-60
2022/06/17 05:46:01;;;;;;;5.37;4.57;;;;;;;-141.26;100.00;62741.75;5123830;28;20218;-60
2022/06/17 05:48:37;;;;;;;5.20;4.70;;;;;;;-141.26;100.00;62741.75;5123796;28;20216;-60
2022/06/17 05:51:15;;;;;;;5.00;4.60;;;;;;;-141.26;100.00;62741.75;5137471;27;20249;-59
2022/06/17 05:53:56;;;;;;;5.03;4.40;;;;;;;-141.26;100.00;62741.75;5103072;28;20219;-60
2022/06/17 05:56:34;;;;;;;6.50;4.83;;;;;;;-141.26;100.00;62741.75;5103200;28;20250;-59
2022/06/17 05:59:03;;;;;;;9.03;5.03;;;;;;;-141.26;100.00;62741.75;5103098;28;20224;-59
2022/06/17 06:01:30;;;;;;;6.83;4.93;;;;;;;-141.26;100.00;62741.75;5102437;28;20236;-60
2022/06/17 06:03:57;;;;;;;7.57;4.60;;;;;;;-141.26;100.00;62741.75;5103128;28;20240;-59
2022/06/17 06:06:33;;;;;;;4.53;4.13;;;;;;;-141.26;100.00;62741.75;5103126;28;20220;-59
2022/06/17 06:09:01;;;;;;;7.17;4.83;;;;;;;-141.26;100.00;62741.75;5103068;28;20271;-59
2022/06/17 06:11:28;;;;;;;4.87;4.37;;;;;;;-141.26;100.00;62741.75;5102969;28;20228;-59
2022/06/17 06:13:56;;;;;;;6.23;4.00;;;;;;;-141.26;100.00;62741.75;5102909;28;20249;-59
2022/06/17 06:16:38;;;;;;;7.00;4.17;;;;;;;-141.26;100.00;62741.75;5102637;28;20269;-59
2022/06/17 06:19:05;;;;;;;5.87;3.97;;;;;;;-141.26;100.00;62741.75;5102803;28;20229;-59
2022/06/17 06:21:33;;;;;;;5.90;4.40;;;;;;;-141.26;100.00;62741.75;5102176;28;20273;-60
2022/06/17 06:24:01;;;;;;;8.70;4.90;;;;;;;-141.26;100.00;62741.75;5102400;28;20256;-60
2022/06/17 06:27:05;;;;;;;5.97;4.10;;;;;;;-141.26;100.00;62741.75;5102653;28;20248;-60
2022/06/17 06:29:39;;;;;;;4.30;3.90;;;;;;;-141.26;100.00;62741.75;5102724;28;20287;-60
2022/06/17 06:32:11;;;;;;;3.67;3.47;;;;;;;-141.26;100.00;62741.75;5102748;28;20309;-60
2022/06/17 06:34:44;;;;;;;7.23;4.27;;;;;;;-141.26;100.00;62741.75;5102545;28;20223;-60
2022/06/17 06:37:14;;;;;;;4.27;3.90;;;;;;;-141.26;100.00;62741.75;5102441;28;20221;-60
2022/06/17 06:39:42;;;;;;;4.10;3.60;;;;;;;-141.26;100.00;62741.75;5102507;28;20220;-60
2022/06/17 06:42:09;;;;;;;5.40;3.70;;;;;;;-141.26;100.00;62741.75;5122304;28;20216;-60
2022/06/17 06:44:41;;;;;;;4.20;3.70;;;;;;;-141.26;100.00;62741.75;5122765;28;20266;-60
2022/06/17 06:47:17;;;;;;;5.57;3.80;;;;;;;-141.26;100.00;62741.75;5123008;28;20228;-60
2022/06/17 06:50:26;;;;;;;4.77;4.20;;;;;;;-141.26;100.00;62741.75;5122823;28;20219;-60
2022/06/17 06:52:55;;;;;;;6.67;4.03;;;;;;;-141.26;100.00;62741.75;5122703;28;20212;-60
2022/06/17 06:55:49;;;;;;;6.37;3.70;;;;;;;-141.26;100.00;62741.75;5124091;27;20220;-60
2022/06/17 06:58:19;;;;;;;3.90;3.50;;;;;;;-141.26;100.00;62741.75;5122827;28;20221;-60
2022/06/17 07:00:53;;;;;;;4.13;3.53;;;;;;;-141.26;100.00;62741.75;5122087;28;20232;-60
2022/06/17 07:03:23;;;;;;;3.73;3.37;;;;;;;-141.26;100.00;62741.75;5122449;28;20224;-60
2022/06/17 07:06:03;;;;;;;5.43;3.57;;;;;;;-141.26;100.00;62741.75;5122315;28;20213;-60
2022/06/17 07:08:34;;;;;;;3.90;3.20;;;;;;;-141.26;100.00;62741.75;5122548;28;20221;-60
2022/06/17 07:11:02;;;;;;;3.90;3.40;;;;;;;-141.26;100.00;62741.75;5124138;27;20237;-60
2022/06/17 07:13:31;;;;;;;4.07;3.33;;;;;;;-141.26;100.00;62741.75;5122376;28;20224;-60
2022/06/17 07:19:45;;;;;;;4.77;3.00;;;;;;;-141.26;100.00;62741.75;5123935;27;20280;-60
2022/06/17 07:22:11;;;;;;;3.57;2.93;;;;;;;-141.26;100.00;62741.75;5122296;28;20266;-60
2022/06/17 07:24:48;;;;;;;4.07;3.13;;;;;;;-141.26;100.00;62741.75;5122074;28;20281;-60
2022/06/17 07:27:15;;;;;;;5.97;3.20;;;;;;;-141.26;100.00;62741.75;5122184;28;20270;-60
2022/06/17 07:29:42;;;;;;;3.57;3.27;;;;;;;-141.26;100.00;62741.75;5122366;28;20266;-60
2022/06/17 07:32:09;;;;;;;3.33;3.03;;;;;;;-141.26;100.00;62741.75;5121690;28;20217;-60
2022/06/17 07:35:15;;;;;;;4.37;3.40;;;;;;;-141.26;100.00;62741.75;5121803;28;20290;-60
2022/06/17 07:40:28;;;;;;;5.97;4.00;;;;;;;-141.26;100.00;62741.75;5122186;27;20358;-60
2022/06/17 07:42:56;;;;;;;5.77;3.50;;;;;;;-141.26;100.00;62741.75;5121693;28;20213;-59
2022/06/17 07:45:30;;;;;;;5.17;3.93;;;;;;;-141.26;100.00;62741.75;5121912;28;20236;-60
2022/06/17 07:48:07;;;;;;;4.67;3.63;;;;;;;-141.26;100.00;62741.75;5122046;28;20258;-60
2022/06/17 07:50:37;;;;;;;4.10;3.70;;;;;;;-141.26;100.00;62741.75;5121742;28;20217;-60
2022/06/17 07:53:04;;;;;;;3.87;3.47;;;;;;;-141.26;100.00;62741.75;5121605;28;20300;-60
2022/06/17 07:56:04;;;;;;;4.67;4.17;;;;;;;-141.26;100.00;62741.75;5121799;27;20266;-60
2022/06/17 07:58:32;;;;;;;3.90;3.23;;;;;;;-141.26;100.00;62741.75;5121934;28;20240;-60
2022/06/17 08:00:59;;;;;;;4.47;3.47;;;;;;;-141.26;100.00;62741.75;5121404;28;20232;-60
2022/06/17 08:03:25;;;;;;;4.67;3.90;;;;;;;-141.26;100.00;62741.75;5121588;28;20258;-60
2022/06/17 08:06:16;;;;;;;5.17;3.40;;;;;;;-141.26;100.00;62741.75;5121571;28;20217;-60
2022/06/17 08:08:44;;;;;;;5.77;3.93;;;;;;;-141.26;100.00;62741.75;5121629;27;20219;-60
2022/06/17 08:11:12;;;;;;;4.00;3.13;;;;;;;-141.26;100.00;62741.75;5121695;28;20216;-60
2022/06/17 08:13:39;;;;;;;5.93;3.77;;;;;;;-141.26;100.00;62741.75;5121606;28;20247;-60
2022/06/17 08:16:24;;;;;;;5.40;3.77;;;;;;;-141.26;100.00;62741.75;5121533;28;20208;-60
2022/06/17 08:22:17;;;;;;;3.67;3.23;;;;;;;-141.26;100.00;62741.75;5121439;27;20212;-60
2022/06/17 08:25:01;;;;;;;3.60;3.30;;;;;;;-141.26;100.00;62741.75;5121263;28;20282;-60
2022/06/17 08:27:28;;;;;;;6.50;3.50;;;;;;;-141.26;100.00;62741.75;5121603;28;20220;-60
2022/06/17 08:29:57;;;;;;;3.30;2.90;;;;;;;-141.26;100.00;62741.75;5121446;27;20237;-60
2022/06/17 08:35:36;;;;;;;3.70;3.20;;;;;;;-141.26;100.00;62741.75;5123087;28;20297;-60
2022/06/17 08:38:07;;;;;;;5.37;2.70;;;;;;;-141.26;100.00;62741.75;5121393;27;20221;-60
2022/06/17 08:40:39;;;;;;;4.47;2.87;;;;;;;-141.26;100.00;62741.75;5122734;27;20205;-60
2022/06/17 08:43:42;;;;;;;3.67;2.93;;;;;;;-141.26;100.00;62741.75;5121384;28;20277;-60
2022/06/17 08:47:08;;;;;;;3.60;2.40;;;;;;;-141.26;100.00;62741.75;5126168;27;20244;-60
2022/06/17 08:50:29;;;;;;;3.17;2.73;;;;;;;-141.26;100.00;62741.75;5126300;27;20205;-60
2022/06/17 08:53:51;;;;;;;3.63;2.80;;;;;;;-141.26;100.00;62741.75;5115471;28;20263;-60
2022/06/17 08:56:50;;;;;;;2.93;2.33;;;;;;;-141.26;100.00;62741.75;5126237;27;20298;-60
2022/06/17 08:59:27;;;;;;;3.20;2.90;;;;;;;-141.26;100.00;62741.75;5126120;27;20229;-60
2022/06/17 09:02:03;;;;;;;3.70;2.47;;;;;;;-141.26;100.00;62741.75;5125418;27;20232;-60
2022/06/17 09:05:01;;;;;;;3.77;2.87;;;;;;;-141.26;100.00;62741.75;5125970;27;20301;-60
2022/06/17 09:07:38;;;;;;;5.43;2.77;;;;;;;-141.26;100.00;62741.75;5124459;28;20221;-60
2022/06/17 09:10:28;;;;;;;3.27;2.97;;;;;;;-141.26;100.00;62741.75;5124356;28;20208;-60
2022/06/17 09:13:10;;;;;;;2.67;2.30;;;;;;;-141.26;100.00;62741.75;5126104;27;20240;-60
2022/06/17 09:16:16;;;;;;;2.47;2.27;;;;;;;-141.26;100.00;62741.75;5125936;27;20236;-60
2022/06/17 09:19:14;;;;;;;3.80;2.60;;;;;;;-141.26;100.00;62741.75;5125680;27;20225;-60
2022/06/17 09:21:48;;;;;;;5.47;2.80;;;;;;;-141.26;100.00;62741.75;5125689;27;20201;-60
2022/06/17 09:24:21;;;;;;;3.87;2.60;;;;;;;-141.26;100.00;62741.75;5125536;27;20220;-60
2022/06/17 09:26:54;;;;;;;2.40;2.20;;;;;;;-141.26;100.00;62741.75;5124231;27;20218;-60
2022/06/17 09:29:25;;;;;;;2.70;2.50;;;;;;;-141.26;100.00;62741.75;5124215;28;20228;-60
2022/06/17 09:31:59;;;;;;;3.70;2.30;;;;;;;-141.26;100.00;62741.75;5123896;27;20213;-60
2022/06/17 09:34:34;;;;;;;2.23;2.07;;;;;;;-141.26;100.00;62741.75;5123957;27;20243;-60
2022/06/17 09:37:09;;;;;;;4.13;2.43;;;;;;;-141.26;100.00;62741.75;5123978;28;20212;-60
2022/06/17 09:39:42;;;;;;;2.60;2.40;;;;;;;-141.26;100.00;62741.75;5124013;27;20235;-60
2022/06/17 09:42:15;;;;;;;2.83;2.03;;;;;;;-141.26;100.00;62741.75;5124050;28;20217;-60
2022/06/17 09:45:10;;;;;;;2.17;2.07;;;;;;;-141.26;100.00;62741.75;5123785;28;20225;-61
2022/06/17 09:47:42;;;;;;;3.53;2.13;;;;;;;-141.26;100.00;62741.75;5125310;27;20224;-60
2022/06/17 09:50:15;;;;;;;2.20;2.00;;;;;;;-141.26;100.00;62741.75;5125238;27;20209;-60
2022/06/17 09:52:50;;;;;;;2.13;1.80;;;;;;;-141.26;100.00;62741.75;5124986;27;20213;-60
2022/06/17 09:55:25;;;;;;;2.20;2.00;;;;;;;-141.26;100.00;62741.75;5123198;27;20215;-60
2022/06/17 09:58:00;;;;;;;3.83;2.30;;;;;;;-141.26;100.00;62741.75;5125314;27;20212;-60
2022/06/17 10:00:34;;;;;;;3.43;2.43;;;;;;;-141.26;100.00;62741.75;5124261;27;20228;-60
2022/06/17 10:03:17;;;;;;;3.90;2.40;;;;;;;-141.26;100.00;62741.75;5122856;27;20221;-60
2022/06/17 10:06:27;;;;;;;4.77;2.60;;;;;;;-141.26;100.00;62741.75;5124648;27;20223;-61
2022/06/17 10:09:03;;;;;;;2.10;1.90;;;;;;;-141.26;100.00;62741.75;5104432;28;20221;-62
2022/06/17 10:11:36;;;;;;;4.23;2.00;;;;;;;-141.26;100.00;62741.75;5104575;28;20205;-61
2022/06/17 10:14:17;;;;;;;4.10;2.07;;;;;;;-141.26;100.00;62741.75;5122951;28;20236;-61
2022/06/17 10:20:03;;;;;;;2.37;1.80;;;;;;;-141.26;100.00;62741.75;5124763;27;20208;-61
2022/06/17 10:22:45;;;;;;;3.50;1.97;;;;;;;-141.26;100.00;62741.75;5123294;28;20221;-61
2022/06/17 10:25:56;;;;;;;3.00;2.00;;;;;;;-141.26;100.00;62741.75;5123055;28;20225;-61
2022/06/17 10:28:52;;;;;;;1.97;1.87;;;;;;;-141.26;100.00;62741.75;5123115;28;20212;-61
2022/06/17 10:31:32;;;;;;;1.93;1.70;;;;;;;-141.26;100.00;62741.75;5124583;27;20204;-61
2022/06/17 10:34:05;;;;;;;2.30;2.10;;;;;;;-141.26;100.00;62741.75;5124855;27;20211;-61
2022/06/17 10:37:14;;;;;;;1.70;1.60;;;;;;;-141.26;100.00;62741.75;5124588;27;20212;-62
2022/06/17 10:39:43;;;;;;;2.47;1.87;;;;;;;-141.26;100.00;62741.75;5124700;27;20205;-62
2022/06/17 10:42:20;;;;;;;2.90;2.40;;;;;;;-141.26;100.00;62741.75;5122459;27;20223;-62
2022/06/17 10:44:54;;;;;;;3.40;2.37;;;;;;;-141.26;100.00;62741.75;5124240;27;20278;-62
2022/06/17 10:47:36;;;;;;;3.03;1.93;;;;;;;-141.26;100.00;62741.75;5124512;27;20223;-62
2022/06/17 10:50:18;;;;;;;2.40;2.10;;;;;;;-141.26;100.00;62741.75;5122522;28;20220;-62
2022/06/17 10:52:50;;;;;;;3.47;1.87;;;;;;;-141.26;100.00;62741.75;5122767;27;20224;-62
2022/06/17 10:55:29;;;;;;;2.23;1.77;;;;;;;-141.26;100.00;62741.75;5122714;28;20224;-62
2022/06/17 10:58:12;;;;;;;2.00;1.80;;;;;;;-141.26;100.00;62741.75;5122726;27;20204;-62
2022/06/17 11:00:45;;;;;;;2.33;2.13;;;;;;;-141.26;100.00;62741.75;5122331;27;20236;-62
2022/06/17 11:03:24;;;;;;;2.57;2.13;;;;;;;-141.26;100.00;62741.75;5124252;27;20208;-62
2022/06/17 11:09:22;;;;;;;3.40;2.10;;;;;;;-141.26;100.00;62741.75;5121587;28;20259;-62
2022/06/17 11:12:05;;;;;;;2.20;1.93;;;;;;;-141.26;100.00;62741.75;5124099;27;20234;-62
2022/06/17 11:15:18;;;;;;;2.63;1.80;;;;;;;-141.26;100.00;62741.75;5123996;27;20204;-62
2022/06/17 11:17:49;;;;;;;2.27;2.07;;;;;;;-141.26;100.00;62741.75;5123925;27;20208;-62
2022/06/17 11:20:24;;;;;;;2.00;1.90;;;;;;;-141.26;100.00;62741.75;5123246;27;20280;-62
2022/06/17 11:22:54;;;;;;;3.33;1.90;;;;;;;-141.26;100.00;62741.75;5122263;28;20270;-62
2022/06/17 11:25:51;;;;;;;3.63;2.03;;;;;;;-141.26;100.00;62741.75;5123535;27;20217;-62
2022/06/17 11:28:25;;;;;;;2.67;1.90;;;;;;;-141.26;100.00;62741.75;5123605;27;20286;-62
2022/06/17 11:30:54;;;;;;;3.37;2.10;;;;;;;-141.26;100.00;62741.75;5123934;27;20205;-62
2022/06/17 11:33:25;;;;;;;2.63;1.90;;;;;;;-141.26;100.00;62741.75;5122265;27;20217;-62
2022/06/17 11:36:01;;;;;;;2.10;2.00;;;;;;;-141.26;100.00;62741.75;5123713;27;20274;-62
2022/06/17 11:38:30;;;;;;;3.43;1.83;;;;;;;-141.26;100.00;62741.75;5123826;28;20211;-62
2022/06/17 11:41:00;;;;;;;2.07;1.70;;;;;;;-141.26;100.00;62741.75;5123377;27;20208;-62
2022/06/17 11:43:35;;;;;;;2.30;2.10;;;;;;;-141.26;100.00;62741.75;5121852;27;20240;-62
2022/06/17 11:46:11;;;;;;;3.50;2.20;;;;;;;-141.26;100.00;62741.75;5121917;28;20224;-62
2022/06/17 11:49:15;;;;;;;2.53;2.10;;;;;;;-141.26;100.00;62741.75;5123276;27;20235;-62
2022/06/17 11:51:50;;;;;;;2.57;2.07;;;;;;;-141.26;100.00;62741.75;5123393;27;20208;-62
2022/06/17 11:54:21;;;;;;;2.80;1.80;;;;;;;-141.26;100.00;62741.75;5123352;27;20223;-62
2022/06/17 11:56:49;;;;;;;3.27;2.00;;;;;;;-141.26;100.00;62741.75;5123345;27;20209;-62
2022/06/17 11:59:20;;;;;;;2.40;2.20;;;;;;;-141.26;100.00;62741.75;5123184;27;20330;-62
2022/06/17 12:01:51;;;;;;;3.23;2.03;;;;;;;-141.26;100.00;62741.75;5121383;27;20228;-62
2022/06/17 12:04:42;;;;;;;3.27;2.13;;;;;;;-141.26;100.00;62741.75;5123336;27;20224;-62
2022/06/17 12:07:33;;;;;;;3.67;2.20;;;;;;;-141.26;100.00;62741.75;5121925;28;20244;-62
2022/06/17 12:10:15;;;;;;;3.13;2.13;;;;;;;-141.26;100.00;62741.75;5123369;27;20219;-62
2022/06/17 12:12:43;;;;;;;3.23;2.20;;;;;;;-141.26;100.00;62741.75;5123143;27;20212;-62
2022/06/17 12:15:41;;;;;;;2.00;1.90;;;;;;;-141.26;100.00;62741.75;5121608;27;20244;-62
2022/06/17 12:18:34;;;;;;;1.97;1.80;;;;;;;-141.26;100.00;62741.75;5121506;28;20220;-62
2022/06/17 12:21:14;;;;;;;2.17;1.97;;;;;;;-141.26;100.00;62741.75;5126625;27;20252;-62
2022/06/17 12:23:47;;;;;;;1.90;1.63;;;;;;;-141.26;100.00;62741.75;5126616;27;20208;-62
2022/06/17 12:26:45;;;;;;;2.70;2.13;;;;;;;-141.26;100.00;62741.75;5126623;27;20221;-62
2022/06/17 12:29:19;;;;;;;2.90;1.93;;;;;;;-141.26;100.00;62741.75;5126649;27;20193;-62
2022/06/17 12:31:52;;;;;;;2.07;1.97;;;;;;;-141.26;100.00;62741.75;5126509;27;20261;-62
2022/06/17 12:34:30;;;;;;;2.83;2.00;;;;;;;-141.26;100.00;62741.75;5126575;27;20273;-62
2022/06/17 12:37:00;;;;;;;2.20;2.00;;;;;;;-141.26;100.00;62741.75;5126445;27;20209;-62
2022/06/17 12:39:36;;;;;;;1.90;1.80;;;;;;;-141.26;100.00;62741.75;5126491;27;20232;-62
2022/06/17 12:42:08;;;;;;;2.70;1.90;;;;;;;-141.26;100.00;62741.75;5124822;28;20302;-62
2022/06/17 12:45:26;;;;;;;2.80;1.83;;;;;;;-141.26;100.00;62741.75;5126500;27;20299;-62